sensor_id;sensor_type;location;lat;lon;timestamp;P1;durP1;ratioP1;P2;durP2;ratioP2
39880;SDS011;25554;44.954;10.068;2022-12-18T00:02:25;119.57;;;44.42;;
39880;SDS011;25554;44.954;10.068;2022-12-18T00:07:17;164.82;;;43.78;;
39880;SDS011;25554;44.954;10.068;2022-12-18T00:09:45;103.70;;;40.95;;
39880;SDS011;25554;44.954;10.068;2022-12-18T00:12:11;120.30;;;43.00;;
39880;SDS011;25554;44.954;10.068;2022-12-18T00:14:37;117.63;;;41.80;;
39880;SDS011;25554;44.954;10.068;2022-12-18T00:17:04;93.30;;;42.08;;
39880;SDS011;25554;44.954;10.068;2022-12-18T00:19:30;164.18;;;45.17;;
39880;SDS011;25554;44.954;10.068;2022-12-18T00:21:56;187.75;;;47.20;;
39880;SDS011;25554;44.954;10.068;2022-12-18T00:24:23;99.75;;;43.75;;
39880;SDS011;25554;44.954;10.068;2022-12-18T00:26:50;112.68;;;43.88;;
39880;SDS011;25554;44.954;10.068;2022-12-18T00:29:16;102.78;;;44.55;;
39880;SDS011;25554;44.954;10.068;2022-12-18T00:31:42;127.70;;;47.97;;
39880;SDS011;25554;44.954;10.068;2022-12-18T00:34:10;129.15;;;48.90;;
39880;SDS011;25554;44.954;10.068;2022-12-18T00:36:39;168.48;;;51.00;;
39880;SDS011;25554;44.954;10.068;2022-12-18T00:39:06;126.03;;;48.88;;
39880;SDS011;25554;44.954;10.068;2022-12-18T00:41:33;108.60;;;48.33;;
39880;SDS011;25554;44.954;10.068;2022-12-18T00:44:18;135.52;;;46.75;;
39880;SDS011;25554;44.954;10.068;2022-12-18T00:46:45;117.15;;;49.35;;
39880;SDS011;25554;44.954;10.068;2022-12-18T00:49:13;110.82;;;47.45;;
39880;SDS011;25554;44.954;10.068;2022-12-18T00:51:40;86.93;;;45.47;;
39880;SDS011;25554;44.954;10.068;2022-12-18T00:56:34;108.40;;;43.90;;
39880;SDS011;25554;44.954;10.068;2022-12-18T00:59:02;92.13;;;45.92;;
39880;SDS011;25554;44.954;10.068;2022-12-18T01:01:30;139.20;;;49.17;;
39880;SDS011;25554;44.954;10.068;2022-12-18T01:03:59;99.15;;;47.92;;
39880;SDS011;25554;44.954;10.068;2022-12-18T01:06:26;105.20;;;46.28;;
39880;SDS011;25554;44.954;10.068;2022-12-18T01:11:20;113.60;;;45.83;;
39880;SDS011;25554;44.954;10.068;2022-12-18T01:13:47;145.10;;;48.22;;
39880;SDS011;25554;44.954;10.068;2022-12-18T01:18:40;89.15;;;44.28;;
39880;SDS011;25554;44.954;10.068;2022-12-18T01:21:09;139.88;;;47.03;;
39880;SDS011;25554;44.954;10.068;2022-12-18T01:23:38;109.75;;;45.70;;
39880;SDS011;25554;44.954;10.068;2022-12-18T01:26:05;85.65;;;44.08;;
39880;SDS011;25554;44.954;10.068;2022-12-18T01:28:36;104.38;;;45.60;;
39880;SDS011;25554;44.954;10.068;2022-12-18T01:31:11;106.05;;;44.78;;
39880;SDS011;25554;44.954;10.068;2022-12-18T01:33:46;129.15;;;47.25;;
39880;SDS011;25554;44.954;10.068;2022-12-18T01:36:19;132.65;;;46.92;;
39880;SDS011;25554;44.954;10.068;2022-12-18T01:38:46;140.25;;;48.83;;
39880;SDS011;25554;44.954;10.068;2022-12-18T01:41:15;110.80;;;46.83;;
39880;SDS011;25554;44.954;10.068;2022-12-18T01:43:44;136.23;;;48.63;;
39880;SDS011;25554;44.954;10.068;2022-12-18T01:46:11;135.88;;;50.22;;
39880;SDS011;25554;44.954;10.068;2022-12-18T01:48:38;124.72;;;49.38;;
39880;SDS011;25554;44.954;10.068;2022-12-18T01:51:06;162.27;;;50.20;;
39880;SDS011;25554;44.954;10.068;2022-12-18T01:53:34;97.68;;;47.40;;
39880;SDS011;25554;44.954;10.068;2022-12-18T01:56:02;90.47;;;45.95;;
39880;SDS011;25554;44.954;10.068;2022-12-18T01:58:39;143.63;;;47.50;;
39880;SDS011;25554;44.954;10.068;2022-12-18T02:01:13;92.35;;;43.95;;
39880;SDS011;25554;44.954;10.068;2022-12-18T02:09:20;145.63;;;44.95;;
39880;SDS011;25554;44.954;10.068;2022-12-18T02:17:22;165.63;;;47.60;;
39880;SDS011;25554;44.954;10.068;2022-12-18T02:20:17;88.78;;;43.17;;
39880;SDS011;25554;44.954;10.068;2022-12-18T02:28:37;140.25;;;47.60;;
39880;SDS011;25554;44.954;10.068;2022-12-18T02:31:21;115.85;;;44.53;;
39880;SDS011;25554;44.954;10.068;2022-12-18T02:33:52;155.13;;;47.58;;
39880;SDS011;25554;44.954;10.068;2022-12-18T02:36:26;130.40;;;43.30;;
39880;SDS011;25554;44.954;10.068;2022-12-18T02:38:56;133.77;;;45.30;;
39880;SDS011;25554;44.954;10.068;2022-12-18T02:41:25;85.47;;;40.10;;
39880;SDS011;25554;44.954;10.068;2022-12-18T02:43:56;123.65;;;41.50;;
39880;SDS011;25554;44.954;10.068;2022-12-18T02:49:02;123.30;;;40.92;;
39880;SDS011;25554;44.954;10.068;2022-12-18T02:54:21;90.60;;;37.90;;
39880;SDS011;25554;44.954;10.068;2022-12-18T02:57:13;97.97;;;40.08;;
39880;SDS011;25554;44.954;10.068;2022-12-18T02:59:53;113.55;;;40.72;;
39880;SDS011;25554;44.954;10.068;2022-12-18T03:02:49;168.80;;;39.72;;
39880;SDS011;25554;44.954;10.068;2022-12-18T03:05:38;112.97;;;39.30;;
39880;SDS011;25554;44.954;10.068;2022-12-18T03:08:24;82.75;;;37.85;;
39880;SDS011;25554;44.954;10.068;2022-12-18T03:11:05;85.35;;;37.20;;
39880;SDS011;25554;44.954;10.068;2022-12-18T03:13:42;80.13;;;37.72;;
39880;SDS011;25554;44.954;10.068;2022-12-18T03:16:22;80.00;;;37.33;;
39880;SDS011;25554;44.954;10.068;2022-12-18T03:19:01;114.07;;;39.28;;
39880;SDS011;25554;44.954;10.068;2022-12-18T03:21:37;140.98;;;38.92;;
39880;SDS011;25554;44.954;10.068;2022-12-18T03:24:08;140.27;;;37.97;;
39880;SDS011;25554;44.954;10.068;2022-12-18T03:26:38;120.55;;;39.10;;
39880;SDS011;25554;44.954;10.068;2022-12-18T03:29:51;149.57;;;41.30;;
39880;SDS011;25554;44.954;10.068;2022-12-18T03:32:08;146.60;;;39.63;;
39880;SDS011;25554;44.954;10.068;2022-12-18T03:34:47;76.55;;;34.30;;
39880;SDS011;25554;44.954;10.068;2022-12-18T03:37:20;98.60;;;37.70;;
39880;SDS011;25554;44.954;10.068;2022-12-18T03:39:46;111.40;;;38.60;;
39880;SDS011;25554;44.954;10.068;2022-12-18T03:42:15;162.75;;;40.10;;
39880;SDS011;25554;44.954;10.068;2022-12-18T03:47:35;121.10;;;39.30;;
39880;SDS011;25554;44.954;10.068;2022-12-18T03:56:03;135.63;;;40.40;;
39880;SDS011;25554;44.954;10.068;2022-12-18T03:58:36;147.40;;;39.22;;
39880;SDS011;25554;44.954;10.068;2022-12-18T04:01:23;171.88;;;43.25;;
39880;SDS011;25554;44.954;10.068;2022-12-18T04:03:54;163.77;;;43.88;;
39880;SDS011;25554;44.954;10.068;2022-12-18T04:06:22;134.85;;;40.05;;
39880;SDS011;25554;44.954;10.068;2022-12-18T04:08:50;150.70;;;40.75;;
39880;SDS011;25554;44.954;10.068;2022-12-18T04:11:20;109.95;;;39.13;;
39880;SDS011;25554;44.954;10.068;2022-12-18T04:13:47;102.10;;;38.30;;
39880;SDS011;25554;44.954;10.068;2022-12-18T04:16:19;139.40;;;39.45;;
39880;SDS011;25554;44.954;10.068;2022-12-18T04:18:49;126.40;;;37.13;;
39880;SDS011;25554;44.954;10.068;2022-12-18T04:21:15;120.10;;;39.08;;
39880;SDS011;25554;44.954;10.068;2022-12-18T04:23:42;107.00;;;37.85;;
39880;SDS011;25554;44.954;10.068;2022-12-18T04:26:08;159.90;;;40.65;;
39880;SDS011;25554;44.954;10.068;2022-12-18T04:28:53;134.70;;;38.47;;
39880;SDS011;25554;44.954;10.068;2022-12-18T04:31:20;194.73;;;42.13;;
39880;SDS011;25554;44.954;10.068;2022-12-18T04:33:47;162.65;;;40.35;;
39880;SDS011;25554;44.954;10.068;2022-12-18T04:36:14;90.20;;;35.90;;
39880;SDS011;25554;44.954;10.068;2022-12-18T04:41:11;103.50;;;36.90;;
39880;SDS011;25554;44.954;10.068;2022-12-18T04:43:39;131.15;;;37.80;;
39880;SDS011;25554;44.954;10.068;2022-12-18T04:46:07;107.25;;;38.25;;
39880;SDS011;25554;44.954;10.068;2022-12-18T04:48:33;132.52;;;37.75;;
39880;SDS011;25554;44.954;10.068;2022-12-18T04:51:01;140.98;;;39.50;;
39880;SDS011;25554;44.954;10.068;2022-12-18T04:53:29;111.80;;;40.83;;
39880;SDS011;25554;44.954;10.068;2022-12-18T04:56:02;90.75;;;38.15;;
39880;SDS011;25554;44.954;10.068;2022-12-18T04:58:29;81.20;;;37.25;;
39880;SDS011;25554;44.954;10.068;2022-12-18T05:00:56;100.97;;;39.42;;
39880;SDS011;25554;44.954;10.068;2022-12-18T05:03:22;87.47;;;38.67;;
39880;SDS011;25554;44.954;10.068;2022-12-18T05:05:49;95.32;;;38.03;;
39880;SDS011;25554;44.954;10.068;2022-12-18T05:08:16;89.85;;;40.17;;
39880;SDS011;25554;44.954;10.068;2022-12-18T05:10:43;95.53;;;38.35;;
39880;SDS011;25554;44.954;10.068;2022-12-18T05:13:09;98.25;;;40.60;;
39880;SDS011;25554;44.954;10.068;2022-12-18T05:15:36;116.78;;;41.30;;
39880;SDS011;25554;44.954;10.068;2022-12-18T05:18:02;112.15;;;40.85;;
39880;SDS011;25554;44.954;10.068;2022-12-18T05:20:30;86.88;;;38.03;;
39880;SDS011;25554;44.954;10.068;2022-12-18T05:22:56;81.72;;;37.40;;
39880;SDS011;25554;44.954;10.068;2022-12-18T05:27:49;138.63;;;39.45;;
39880;SDS011;25554;44.954;10.068;2022-12-18T05:32:42;101.75;;;39.35;;
39880;SDS011;25554;44.954;10.068;2022-12-18T05:35:09;128.85;;;42.83;;
39880;SDS011;25554;44.954;10.068;2022-12-18T05:37:36;125.38;;;41.95;;
39880;SDS011;25554;44.954;10.068;2022-12-18T05:40:03;141.35;;;42.40;;
39880;SDS011;25554;44.954;10.068;2022-12-18T05:42:30;163.35;;;43.67;;
39880;SDS011;25554;44.954;10.068;2022-12-18T05:44:56;138.43;;;42.22;;
39880;SDS011;25554;44.954;10.068;2022-12-18T05:47:22;183.40;;;45.80;;
39880;SDS011;25554;44.954;10.068;2022-12-18T05:49:49;174.00;;;44.17;;
39880;SDS011;25554;44.954;10.068;2022-12-18T05:52:15;119.72;;;41.85;;
39880;SDS011;25554;44.954;10.068;2022-12-18T05:54:41;155.23;;;42.25;;
39880;SDS011;25554;44.954;10.068;2022-12-18T05:57:07;134.73;;;43.28;;
39880;SDS011;25554;44.954;10.068;2022-12-18T05:59:34;150.15;;;41.67;;
39880;SDS011;25554;44.954;10.068;2022-12-18T06:02:00;160.50;;;43.45;;
39880;SDS011;25554;44.954;10.068;2022-12-18T06:04:27;146.63;;;43.70;;
39880;SDS011;25554;44.954;10.068;2022-12-18T06:06:55;148.07;;;42.67;;
39880;SDS011;25554;44.954;10.068;2022-12-18T06:09:21;160.93;;;42.65;;
39880;SDS011;25554;44.954;10.068;2022-12-18T06:11:48;173.35;;;44.15;;
39880;SDS011;25554;44.954;10.068;2022-12-18T06:14:16;169.68;;;43.47;;
39880;SDS011;25554;44.954;10.068;2022-12-18T06:19:12;148.75;;;43.10;;
39880;SDS011;25554;44.954;10.068;2022-12-18T06:21:41;128.95;;;41.50;;
39880;SDS011;25554;44.954;10.068;2022-12-18T06:26:33;144.40;;;41.05;;
39880;SDS011;25554;44.954;10.068;2022-12-18T06:29:02;152.48;;;44.15;;
39880;SDS011;25554;44.954;10.068;2022-12-18T06:33:54;163.18;;;42.17;;
39880;SDS011;25554;44.954;10.068;2022-12-18T06:36:20;139.93;;;41.72;;
39880;SDS011;25554;44.954;10.068;2022-12-18T06:38:47;140.95;;;40.90;;
39880;SDS011;25554;44.954;10.068;2022-12-18T06:41:15;179.50;;;45.58;;
39880;SDS011;25554;44.954;10.068;2022-12-18T06:43:43;189.15;;;44.67;;
39880;SDS011;25554;44.954;10.068;2022-12-18T06:48:36;169.50;;;42.05;;
39880;SDS011;25554;44.954;10.068;2022-12-18T06:51:03;174.32;;;40.95;;
39880;SDS011;25554;44.954;10.068;2022-12-18T06:53:29;172.82;;;43.35;;
39880;SDS011;25554;44.954;10.068;2022-12-18T06:56:03;159.63;;;43.13;;
39880;SDS011;25554;44.954;10.068;2022-12-18T06:58:32;153.43;;;44.00;;
39880;SDS011;25554;44.954;10.068;2022-12-18T07:00:59;141.40;;;41.42;;
39880;SDS011;25554;44.954;10.068;2022-12-18T07:03:26;126.30;;;40.22;;
39880;SDS011;25554;44.954;10.068;2022-12-18T07:05:53;139.50;;;40.05;;
39880;SDS011;25554;44.954;10.068;2022-12-18T07:08:19;133.70;;;40.65;;
39880;SDS011;25554;44.954;10.068;2022-12-18T07:10:46;131.18;;;40.38;;
39880;SDS011;25554;44.954;10.068;2022-12-18T07:13:15;116.63;;;38.30;;
39880;SDS011;25554;44.954;10.068;2022-12-18T07:15:42;113.25;;;39.53;;
39880;SDS011;25554;44.954;10.068;2022-12-18T07:18:09;125.20;;;39.45;;
39880;SDS011;25554;44.954;10.068;2022-12-18T07:20:36;124.78;;;39.53;;
39880;SDS011;25554;44.954;10.068;2022-12-18T07:23:03;132.40;;;41.53;;
39880;SDS011;25554;44.954;10.068;2022-12-18T07:25:34;127.22;;;38.60;;
39880;SDS011;25554;44.954;10.068;2022-12-18T07:28:01;126.03;;;38.67;;
39880;SDS011;25554;44.954;10.068;2022-12-18T07:32:53;114.60;;;34.55;;
39880;SDS011;25554;44.954;10.068;2022-12-18T07:35:20;102.38;;;34.40;;
39880;SDS011;25554;44.954;10.068;2022-12-18T07:37:46;101.38;;;35.22;;
39880;SDS011;25554;44.954;10.068;2022-12-18T07:40:12;99.72;;;35.35;;
39880;SDS011;25554;44.954;10.068;2022-12-18T07:42:39;101.07;;;35.42;;
39880;SDS011;25554;44.954;10.068;2022-12-18T07:45:05;99.05;;;34.20;;
39880;SDS011;25554;44.954;10.068;2022-12-18T07:47:34;98.65;;;34.17;;
39880;SDS011;25554;44.954;10.068;2022-12-18T07:50:02;87.72;;;33.15;;
39880;SDS011;25554;44.954;10.068;2022-12-18T07:52:29;92.25;;;33.55;;
39880;SDS011;25554;44.954;10.068;2022-12-18T07:54:56;79.25;;;30.85;;
39880;SDS011;25554;44.954;10.068;2022-12-18T07:59:48;70.78;;;28.27;;
39880;SDS011;25554;44.954;10.068;2022-12-18T08:02:14;69.43;;;28.85;;
39880;SDS011;25554;44.954;10.068;2022-12-18T08:04:41;74.22;;;29.92;;
39880;SDS011;25554;44.954;10.068;2022-12-18T08:07:07;74.13;;;28.27;;
39880;SDS011;25554;44.954;10.068;2022-12-18T08:09:33;70.95;;;28.50;;
39880;SDS011;25554;44.954;10.068;2022-12-18T08:12:00;71.03;;;28.45;;
39880;SDS011;25554;44.954;10.068;2022-12-18T08:14:26;73.18;;;29.63;;
39880;SDS011;25554;44.954;10.068;2022-12-18T08:16:52;73.38;;;30.38;;
39880;SDS011;25554;44.954;10.068;2022-12-18T08:19:19;70.38;;;28.83;;
39880;SDS011;25554;44.954;10.068;2022-12-18T08:21:45;68.75;;;30.67;;
39880;SDS011;25554;44.954;10.068;2022-12-18T08:24:11;74.18;;;31.55;;
39880;SDS011;25554;44.954;10.068;2022-12-18T08:26:37;72.10;;;29.08;;
39880;SDS011;25554;44.954;10.068;2022-12-18T08:29:04;71.78;;;29.70;;
39880;SDS011;25554;44.954;10.068;2022-12-18T08:33:57;75.00;;;29.27;;
39880;SDS011;25554;44.954;10.068;2022-12-18T08:36:23;75.40;;;30.33;;
39880;SDS011;25554;44.954;10.068;2022-12-18T08:38:50;79.63;;;31.38;;
39880;SDS011;25554;44.954;10.068;2022-12-18T08:41:17;81.60;;;31.45;;
39880;SDS011;25554;44.954;10.068;2022-12-18T08:43:44;84.55;;;32.30;;
39880;SDS011;25554;44.954;10.068;2022-12-18T08:46:33;75.13;;;30.20;;
39880;SDS011;25554;44.954;10.068;2022-12-18T08:49:02;84.38;;;32.83;;
39880;SDS011;25554;44.954;10.068;2022-12-18T08:51:29;66.18;;;30.38;;
39880;SDS011;25554;44.954;10.068;2022-12-18T08:53:55;74.90;;;31.48;;
39880;SDS011;25554;44.954;10.068;2022-12-18T08:56:22;62.17;;;27.75;;
39880;SDS011;25554;44.954;10.068;2022-12-18T08:58:51;68.78;;;29.42;;
39880;SDS011;25554;44.954;10.068;2022-12-18T09:01:21;67.78;;;29.08;;
39880;SDS011;25554;44.954;10.068;2022-12-18T09:03:48;68.57;;;29.83;;
39880;SDS011;25554;44.954;10.068;2022-12-18T09:06:16;69.55;;;30.10;;
39880;SDS011;25554;44.954;10.068;2022-12-18T09:08:44;62.92;;;29.25;;
39880;SDS011;25554;44.954;10.068;2022-12-18T09:11:12;66.80;;;29.98;;
39880;SDS011;25554;44.954;10.068;2022-12-18T09:13:52;69.25;;;29.48;;
39880;SDS011;25554;44.954;10.068;2022-12-18T09:16:19;75.57;;;32.47;;
39880;SDS011;25554;44.954;10.068;2022-12-18T09:18:47;75.00;;;31.35;;
39880;SDS011;25554;44.954;10.068;2022-12-18T09:21:14;68.85;;;31.08;;
39880;SDS011;25554;44.954;10.068;2022-12-18T09:23:49;69.55;;;30.25;;
39880;SDS011;25554;44.954;10.068;2022-12-18T09:26:16;64.72;;;29.55;;
39880;SDS011;25554;44.954;10.068;2022-12-18T09:28:43;60.20;;;29.58;;
39880;SDS011;25554;44.954;10.068;2022-12-18T09:31:10;63.55;;;28.80;;
39880;SDS011;25554;44.954;10.068;2022-12-18T09:33:41;64.45;;;29.83;;
39880;SDS011;25554;44.954;10.068;2022-12-18T09:36:08;64.05;;;28.13;;
39880;SDS011;25554;44.954;10.068;2022-12-18T09:38:36;58.85;;;29.02;;
39880;SDS011;25554;44.954;10.068;2022-12-18T09:41:04;56.25;;;28.42;;
39880;SDS011;25554;44.954;10.068;2022-12-18T09:43:49;58.63;;;28.00;;
39880;SDS011;25554;44.954;10.068;2022-12-18T09:46:40;57.20;;;28.77;;
39880;SDS011;25554;44.954;10.068;2022-12-18T09:49:12;61.70;;;28.48;;
39880;SDS011;25554;44.954;10.068;2022-12-18T09:51:48;54.83;;;27.27;;
39880;SDS011;25554;44.954;10.068;2022-12-18T09:54:32;57.88;;;27.70;;
39880;SDS011;25554;44.954;10.068;2022-12-18T09:57:06;54.60;;;27.63;;
39880;SDS011;25554;44.954;10.068;2022-12-18T09:59:37;53.42;;;26.58;;
39880;SDS011;25554;44.954;10.068;2022-12-18T10:02:21;47.28;;;26.52;;
39880;SDS011;25554;44.954;10.068;2022-12-18T10:05:02;54.80;;;27.10;;
39880;SDS011;25554;44.954;10.068;2022-12-18T10:07:59;54.42;;;25.67;;
39880;SDS011;25554;44.954;10.068;2022-12-18T10:21:34;57.30;;;27.50;;
39880;SDS011;25554;44.954;10.068;2022-12-18T10:24:20;54.97;;;28.27;;
39880;SDS011;25554;44.954;10.068;2022-12-18T10:26:48;55.92;;;28.52;;
39880;SDS011;25554;44.954;10.068;2022-12-18T10:31:42;52.60;;;25.45;;
39880;SDS011;25554;44.954;10.068;2022-12-18T10:36:35;56.28;;;28.23;;
39880;SDS011;25554;44.954;10.068;2022-12-18T10:39:21;55.55;;;28.20;;
39880;SDS011;25554;44.954;10.068;2022-12-18T10:41:50;58.38;;;29.98;;
39880;SDS011;25554;44.954;10.068;2022-12-18T10:46:44;56.33;;;28.40;;
39880;SDS011;25554;44.954;10.068;2022-12-18T10:49:19;52.75;;;27.75;;
39880;SDS011;25554;44.954;10.068;2022-12-18T10:51:51;48.83;;;24.85;;
39880;SDS011;25554;44.954;10.068;2022-12-18T10:54:29;45.10;;;23.27;;
39880;SDS011;25554;44.954;10.068;2022-12-18T10:59:52;48.67;;;25.20;;
39880;SDS011;25554;44.954;10.068;2022-12-18T11:02:34;45.58;;;24.00;;
39880;SDS011;25554;44.954;10.068;2022-12-18T11:05:02;45.80;;;24.60;;
39880;SDS011;25554;44.954;10.068;2022-12-18T11:07:48;42.78;;;24.33;;
39880;SDS011;25554;44.954;10.068;2022-12-18T11:10:17;47.97;;;24.90;;
39880;SDS011;25554;44.954;10.068;2022-12-18T11:12:44;49.08;;;25.33;;
39880;SDS011;25554;44.954;10.068;2022-12-18T11:17:49;45.10;;;23.95;;
39880;SDS011;25554;44.954;10.068;2022-12-18T11:20:51;44.80;;;23.50;;
39880;SDS011;25554;44.954;10.068;2022-12-18T11:23:15;40.58;;;23.23;;
39880;SDS011;25554;44.954;10.068;2022-12-18T11:25:49;43.13;;;23.15;;
39880;SDS011;25554;44.954;10.068;2022-12-18T11:36:42;47.22;;;23.92;;
39880;SDS011;25554;44.954;10.068;2022-12-18T11:39:33;47.67;;;23.92;;
39880;SDS011;25554;44.954;10.068;2022-12-18T11:42:14;47.33;;;23.73;;
39880;SDS011;25554;44.954;10.068;2022-12-18T11:47:19;49.42;;;25.30;;
39880;SDS011;25554;44.954;10.068;2022-12-18T11:49:55;45.58;;;25.00;;
39880;SDS011;25554;44.954;10.068;2022-12-18T11:52:34;46.88;;;24.13;;
39880;SDS011;25554;44.954;10.068;2022-12-18T11:55:13;46.28;;;24.50;;
39880;SDS011;25554;44.954;10.068;2022-12-18T12:00:47;45.90;;;25.38;;
39880;SDS011;25554;44.954;10.068;2022-12-18T12:06:45;50.10;;;24.87;;
39880;SDS011;25554;44.954;10.068;2022-12-18T12:09:24;49.05;;;26.05;;
39880;SDS011;25554;44.954;10.068;2022-12-18T12:17:06;44.22;;;23.80;;
39880;SDS011;25554;44.954;10.068;2022-12-18T12:20:00;46.38;;;23.92;;
39880;SDS011;25554;44.954;10.068;2022-12-18T12:25:33;41.38;;;23.63;;
39880;SDS011;25554;44.954;10.068;2022-12-18T12:28:19;42.20;;;22.77;;
39880;SDS011;25554;44.954;10.068;2022-12-18T12:31:00;42.70;;;24.10;;
39880;SDS011;25554;44.954;10.068;2022-12-18T12:36:42;44.45;;;24.08;;
39880;SDS011;25554;44.954;10.068;2022-12-18T12:39:32;45.80;;;25.35;;
39880;SDS011;25554;44.954;10.068;2022-12-18T12:42:05;47.78;;;24.50;;
39880;SDS011;25554;44.954;10.068;2022-12-18T12:44:56;43.33;;;23.05;;
39880;SDS011;25554;44.954;10.068;2022-12-18T12:47:30;42.90;;;24.05;;
39880;SDS011;25554;44.954;10.068;2022-12-18T12:49:59;44.85;;;24.83;;
39880;SDS011;25554;44.954;10.068;2022-12-18T12:57:34;39.83;;;22.00;;
39880;SDS011;25554;44.954;10.068;2022-12-18T13:00:10;43.58;;;24.35;;
39880;SDS011;25554;44.954;10.068;2022-12-18T13:08:10;44.80;;;22.63;;
39880;SDS011;25554;44.954;10.068;2022-12-18T13:10:47;41.50;;;23.15;;
39880;SDS011;25554;44.954;10.068;2022-12-18T13:13:14;44.38;;;22.88;;
39880;SDS011;25554;44.954;10.068;2022-12-18T13:15:42;45.22;;;24.48;;
39880;SDS011;25554;44.954;10.068;2022-12-18T13:26:37;42.38;;;22.85;;
39880;SDS011;25554;44.954;10.068;2022-12-18T13:31:13;44.85;;;25.52;;
39880;SDS011;25554;44.954;10.068;2022-12-18T13:34:16;47.60;;;24.55;;
39880;SDS011;25554;44.954;10.068;2022-12-18T13:36:45;43.38;;;23.17;;
39880;SDS011;25554;44.954;10.068;2022-12-18T13:46:49;47.35;;;24.25;;
39880;SDS011;25554;44.954;10.068;2022-12-18T13:51:46;47.38;;;24.63;;
39880;SDS011;25554;44.954;10.068;2022-12-18T13:54:19;49.10;;;24.92;;
39880;SDS011;25554;44.954;10.068;2022-12-18T13:56:59;46.10;;;24.08;;
39880;SDS011;25554;44.954;10.068;2022-12-18T13:59:33;50.30;;;25.67;;
39880;SDS011;25554;44.954;10.068;2022-12-18T14:02:15;51.22;;;25.55;;
39880;SDS011;25554;44.954;10.068;2022-12-18T14:04:46;46.25;;;24.67;;
39880;SDS011;25554;44.954;10.068;2022-12-18T14:09:49;47.35;;;23.73;;
39880;SDS011;25554;44.954;10.068;2022-12-18T14:12:19;47.58;;;24.42;;
39880;SDS011;25554;44.954;10.068;2022-12-18T14:15:52;45.42;;;24.17;;
39880;SDS011;25554;44.954;10.068;2022-12-18T14:18:01;50.20;;;25.10;;
39880;SDS011;25554;44.954;10.068;2022-12-18T14:20:41;52.85;;;25.45;;
39880;SDS011;25554;44.954;10.068;2022-12-18T14:26:26;57.65;;;25.92;;
39880;SDS011;25554;44.954;10.068;2022-12-18T14:31:24;47.92;;;24.75;;
39880;SDS011;25554;44.954;10.068;2022-12-18T14:33:52;55.83;;;25.13;;
39880;SDS011;25554;44.954;10.068;2022-12-18T14:36:20;50.40;;;25.30;;
39880;SDS011;25554;44.954;10.068;2022-12-18T14:38:52;49.20;;;25.25;;
39880;SDS011;25554;44.954;10.068;2022-12-18T14:41:22;47.92;;;24.17;;
39880;SDS011;25554;44.954;10.068;2022-12-18T14:43:50;51.53;;;26.05;;
39880;SDS011;25554;44.954;10.068;2022-12-18T14:46:25;47.03;;;24.60;;
39880;SDS011;25554;44.954;10.068;2022-12-18T14:48:54;49.80;;;26.35;;
39880;SDS011;25554;44.954;10.068;2022-12-18T14:51:23;56.65;;;26.77;;
39880;SDS011;25554;44.954;10.068;2022-12-18T14:53:55;53.55;;;26.33;;
39880;SDS011;25554;44.954;10.068;2022-12-18T14:56:24;55.53;;;27.45;;
39880;SDS011;25554;44.954;10.068;2022-12-18T15:01:25;53.05;;;26.73;;
39880;SDS011;25554;44.954;10.068;2022-12-18T15:03:54;55.50;;;27.27;;
39880;SDS011;25554;44.954;10.068;2022-12-18T15:06:32;53.15;;;26.42;;
39880;SDS011;25554;44.954;10.068;2022-12-18T15:09:03;55.30;;;27.25;;
39880;SDS011;25554;44.954;10.068;2022-12-18T15:11:46;51.20;;;26.80;;
39880;SDS011;25554;44.954;10.068;2022-12-18T15:14:23;50.28;;;24.73;;
39880;SDS011;25554;44.954;10.068;2022-12-18T15:16:55;50.22;;;25.23;;
39880;SDS011;25554;44.954;10.068;2022-12-18T15:19:26;54.70;;;27.77;;
39880;SDS011;25554;44.954;10.068;2022-12-18T15:22:02;57.70;;;27.17;;
39880;SDS011;25554;44.954;10.068;2022-12-18T15:24:30;55.47;;;28.63;;
39880;SDS011;25554;44.954;10.068;2022-12-18T15:26:58;55.85;;;26.42;;
39880;SDS011;25554;44.954;10.068;2022-12-18T15:29:25;56.88;;;27.85;;
39880;SDS011;25554;44.954;10.068;2022-12-18T15:31:59;54.08;;;28.13;;
39880;SDS011;25554;44.954;10.068;2022-12-18T15:34:26;55.78;;;26.25;;
39880;SDS011;25554;44.954;10.068;2022-12-18T15:36:52;53.83;;;26.48;;
39880;SDS011;25554;44.954;10.068;2022-12-18T15:39:19;50.33;;;26.33;;
39880;SDS011;25554;44.954;10.068;2022-12-18T15:41:46;57.65;;;26.60;;
39880;SDS011;25554;44.954;10.068;2022-12-18T15:44:31;54.20;;;25.80;;
39880;SDS011;25554;44.954;10.068;2022-12-18T15:49:23;53.78;;;24.35;;
39880;SDS011;25554;44.954;10.068;2022-12-18T15:51:53;50.65;;;24.52;;
39880;SDS011;25554;44.954;10.068;2022-12-18T15:54:22;49.65;;;23.92;;
39880;SDS011;25554;44.954;10.068;2022-12-18T15:57:27;51.10;;;23.52;;
39880;SDS011;25554;44.954;10.068;2022-12-18T15:59:54;52.65;;;24.52;;
39880;SDS011;25554;44.954;10.068;2022-12-18T16:02:24;49.53;;;23.83;;
39880;SDS011;25554;44.954;10.068;2022-12-18T16:04:51;55.97;;;24.70;;
39880;SDS011;25554;44.954;10.068;2022-12-18T16:07:18;50.47;;;23.63;;
39880;SDS011;25554;44.954;10.068;2022-12-18T16:09:45;55.90;;;27.63;;
39880;SDS011;25554;44.954;10.068;2022-12-18T16:14:46;50.70;;;24.10;;
39880;SDS011;25554;44.954;10.068;2022-12-18T16:17:13;51.92;;;24.85;;
39880;SDS011;25554;44.954;10.068;2022-12-18T16:19:40;59.60;;;26.90;;
39880;SDS011;25554;44.954;10.068;2022-12-18T16:22:08;54.17;;;25.10;;
39880;SDS011;25554;44.954;10.068;2022-12-18T16:24:44;56.75;;;26.92;;
39880;SDS011;25554;44.954;10.068;2022-12-18T16:29:37;53.58;;;25.48;;
39880;SDS011;25554;44.954;10.068;2022-12-18T16:32:04;54.28;;;25.27;;
39880;SDS011;25554;44.954;10.068;2022-12-18T16:34:31;52.65;;;25.48;;
39880;SDS011;25554;44.954;10.068;2022-12-18T16:37:00;49.42;;;23.83;;
39880;SDS011;25554;44.954;10.068;2022-12-18T16:39:28;53.50;;;24.73;;
39880;SDS011;25554;44.954;10.068;2022-12-18T16:41:55;51.67;;;25.80;;
39880;SDS011;25554;44.954;10.068;2022-12-18T16:44:22;57.95;;;27.23;;
39880;SDS011;25554;44.954;10.068;2022-12-18T16:46:49;53.78;;;25.73;;
39880;SDS011;25554;44.954;10.068;2022-12-18T16:51:42;55.97;;;25.70;;
39880;SDS011;25554;44.954;10.068;2022-12-18T16:54:09;53.33;;;25.55;;
39880;SDS011;25554;44.954;10.068;2022-12-18T16:56:36;58.63;;;27.20;;
39880;SDS011;25554;44.954;10.068;2022-12-18T16:59:04;55.63;;;26.35;;
39880;SDS011;25554;44.954;10.068;2022-12-18T17:01:31;50.63;;;24.02;;
39880;SDS011;25554;44.954;10.068;2022-12-18T17:03:58;55.03;;;26.40;;
39880;SDS011;25554;44.954;10.068;2022-12-18T17:06:27;54.90;;;25.45;;
39880;SDS011;25554;44.954;10.068;2022-12-18T17:08:55;51.15;;;24.95;;
39880;SDS011;25554;44.954;10.068;2022-12-18T17:11:26;58.10;;;27.73;;
39880;SDS011;25554;44.954;10.068;2022-12-18T17:13:54;56.58;;;26.23;;
39880;SDS011;25554;44.954;10.068;2022-12-18T17:16:21;53.47;;;26.75;;